Weather Station Data

Station Data Captured at Five Minute Intervals Since Midnight


Date Time Temp. RH % Dew Pt. Wind Speed Wind Dir. Peak Wind Wind Chill Pressure Precip. Solar W/m2 ET
7/16/18 2:20p 81.6 76 73.3 1.0 NW 3.0 81.6 29.901 0.00 572 0.000
7/16/18 2:15p 81.2 78 73.7 0.0 WNW 2.0 81.2 29.904 0.00 533 0.000
7/16/18 2:10p 80.8 79 73.7 0.0 WNW 2.0 80.8 29.906 0.00 541 0.000
7/16/18 2:05p 80.2 79 73.1 0.0 --- 0.0 80.2 29.907 0.00 477 0.000
7/16/18 2:00p 80.1 80 73.4 0.0 SW 1.0 80.1 29.912 0.00 372 0.008
7/16/18 1:55p 80.0 80 73.3 0.0 --- 0.0 80.0 29.911 0.00 385 0.000
7/16/18 1:50p 79.5 80 72.8 0.0 NW 2.0 79.5 29.910 0.00 441 0.000
7/16/18 1:45p 79.3 80 72.6 0.0 NW 2.0 79.3 29.911 0.00 406 0.000
7/16/18 1:40p 78.7 80 72.0 0.0 --- 0.0 78.7 29.915 0.00 413 0.000
7/16/18 1:35p 78.4 81 72.1 0.0 SSW 2.0 78.4 29.917 0.00 335 0.000
7/16/18 1:30p 78.7 81 72.4 0.0 SSE 1.0 78.7 29.920 0.00 214 0.000
7/16/18 1:25p 78.7 82 72.7 0.0 --- 0.0 78.7 29.923 0.00 227 0.000
7/16/18 1:20p 78.4 82 72.4 0.0 --- 0.0 78.4 29.925 0.00 328 0.000
7/16/18 1:15p 77.9 83 72.3 0.0 --- 0.0 77.9 29.926 0.00 322 0.000
7/16/18 1:10p 77.8 83 72.2 1.0 SSW 3.0 77.8 29.930 0.00 264 0.000
7/16/18 1:05p 77.7 83 72.1 0.0 SSW 1.0 77.7 29.932 0.00 345 0.000
7/16/18 1:00p 77.5 84 72.3 0.0 --- 0.0 77.5 29.932 0.00 400 0.008
7/16/18 12:55p 77.0 84 71.8 0.0 SSW 2.0 77.0 29.936 0.00 506 0.000
7/16/18 12:50p 77.0 85 72.1 0.0 S 1.0 77.0 29.939 0.00 407 0.000
7/16/18 12:45p 76.4 85 71.6 0.0 --- 0.0 76.4 29.942 0.00 387 0.000
7/16/18 12:40p 75.9 85 71.1 0.0 --- 0.0 75.9 29.942 0.00 413 0.000
7/16/18 12:35p 75.6 85 70.8 0.0 S 2.0 75.6 29.943 0.00 443 0.000
7/16/18 12:30p 75.5 86 71.0 0.0 --- 0.0 75.5 29.943 0.00 389 0.000
7/16/18 12:25p 75.2 86 70.7 0.0 S 3.0 75.2 29.944 0.00 253 0.000
7/16/18 12:20p 75.3 85 70.5 0.0 S 2.0 75.3 29.946 0.01 202 0.000
7/16/18 12:15p 75.4 85 70.6 0.0 S 5.0 75.4 29.947 0.00 196 0.000
7/16/18 12:10p 75.4 85 70.6 0.0 S 1.0 75.4 29.948 0.00 183 0.000
7/16/18 12:05p 75.3 85 70.5 1.0 SSE 2.0 75.3 29.946 0.00 176 0.000
7/16/18 12:00p 75.4 85 70.6 0.0 SSE 2.0 75.4 29.947 0.00 166 0.005
7/16/18 11:55a 75.5 85 70.7 0.0 SSE 2.0 75.5 29.949 0.00 153 0.000
7/16/18 11:50a 75.7 85 70.9 1.0 S 4.0 75.7 29.950 0.00 134 0.000
7/16/18 11:45a 76.2 84 71.0 2.0 S 5.0 76.2 29.951 0.00 121 0.000
7/16/18 11:40a 76.9 83 71.3 1.0 SSE 4.0 76.9 29.950 0.00 132 0.000
7/16/18 11:35a 77.4 81 71.1 1.0 SSE 3.0 77.4 29.948 0.00 144 0.000
7/16/18 11:30a 77.7 79 70.7 3.0 S 7.0 77.7 29.947 0.00 150 0.000
7/16/18 11:25a 77.9 79 70.9 2.0 S 8.0 77.9 29.946 0.00 200 0.000
7/16/18 11:20a 78.0 79 71.0 2.0 SSW 8.0 78.0 29.944 0.00 241 0.000
7/16/18 11:15a 77.9 79 70.9 2.0 S 7.0 77.9 29.948 0.00 323 0.000
7/16/18 11:10a 77.8 80 71.1 1.0 S 8.0 77.8 29.947 0.00 290 0.000
7/16/18 11:05a 77.8 80 71.1 2.0 S 5.0 77.8 29.948 0.00 236 0.000
7/16/18 11:00a 77.9 80 71.2 1.0 SSW 5.0 77.9 29.947 0.00 229 0.006
7/16/18 10:55a 78.0 80 71.3 1.0 SSE 4.0 78.0 29.947 0.00 187 0.000
7/16/18 10:50a 78.0 81 71.7 2.0 S 7.0 78.0 29.946 0.00 187 0.000
7/16/18 10:45a 78.0 80 71.3 1.0 SSW 5.0 78.0 29.946 0.00 247 0.000
7/16/18 10:40a 77.8 80 71.1 1.0 S 5.0 77.8 29.947 0.00 304 0.000
7/16/18 10:35a 77.6 81 71.3 2.0 S 6.0 77.6 29.948 0.00 379 0.000
7/16/18 10:30a 77.1 83 71.5 2.0 S 6.0 77.1 29.948 0.00 302 0.000
7/16/18 10:25a 76.7 83 71.1 2.0 S 7.0 76.7 29.950 0.00 229 0.000
7/16/18 10:20a 76.7 83 71.1 3.0 SSW 7.0 76.7 29.948 0.00 161 0.000
7/16/18 10:15a 76.8 84 71.6 2.0 S 5.0 76.8 29.947 0.00 170 0.000
7/16/18 10:10a 76.7 84 71.5 0.0 WNW 3.0 76.7 29.946 0.00 171 0.000
7/16/18 10:05a 76.5 84 71.3 0.0 SSW 4.0 76.5 29.945 0.00 169 0.000
7/16/18 10:00a 76.5 84 71.3 1.0 WNW 6.0 76.5 29.947 0.00 160 0.005
7/16/18 9:55a 76.4 84 71.2 1.0 SSE 4.0 76.4 29.945 0.00 211 0.000
7/16/18 9:50a 76.4 83 70.9 0.0 SSE 3.0 76.4 29.946 0.00 146 0.000
7/16/18 9:45a 76.3 85 71.5 0.0 S 2.0 76.3 29.947 0.00 198 0.000
7/16/18 9:40a 75.8 85 71.0 0.0 W 1.0 75.8 29.945 0.00 262 0.000
7/16/18 9:35a 75.3 85 70.5 1.0 S 4.0 75.3 29.947 0.00 228 0.000
7/16/18 9:30a 75.1 85 70.3 1.0 S 5.0 75.1 29.948 0.00 147 0.000
7/16/18 9:25a 75.0 85 70.2 1.0 SSW 5.0 75.0 29.946 0.00 123 0.000
7/16/18 9:20a 75.0 86 70.5 0.0 --- 0.0 75.0 29.945 0.00 79 0.000
7/16/18 9:15a 74.8 86 70.3 1.0 SSW 4.0 74.8 29.943 0.00 277 0.000
7/16/18 9:10a 74.7 86 70.2 0.0 SW 2.0 74.7 29.941 0.00 279 0.000
7/16/18 9:05a 74.4 86 69.9 1.0 S 4.0 74.4 29.941 0.00 151 0.000
7/16/18 9:00a 74.3 87 70.2 0.0 --- 0.0 74.3 29.939 0.00 170 0.003
7/16/18 8:55a 74.0 87 69.9 0.0 SW 2.0 74.0 29.938 0.00 192 0.000
7/16/18 8:50a 73.6 87 69.5 0.0 SSW 4.0 73.6 29.939 0.00 134 0.000
7/16/18 8:45a 73.3 88 69.5 1.0 SSW 3.0 73.3 29.935 0.00 134 0.000
7/16/18 8:40a 73.1 88 69.3 0.0 S 1.0 73.1 29.936 0.00 141 0.000
7/16/18 8:35a 72.9 88 69.1 1.0 SSW 4.0 72.9 29.935 0.00 68 0.000
7/16/18 8:30a 73.0 88 69.2 0.0 --- 0.0 73.0 29.931 0.00 96 0.000
7/16/18 8:25a 72.9 88 69.1 0.0 SSW 2.0 72.9 29.932 0.00 55 0.000
7/16/18 8:20a 72.9 88 69.1 1.0 SSW 5.0 72.9 29.932 0.00 53 0.000
7/16/18 8:15a 72.8 89 69.4 0.0 SSE 1.0 72.8 29.932 0.00 55 0.000
7/16/18 8:10a 72.8 89 69.4 0.0 SW 2.0 72.8 29.935 0.00 60 0.000
7/16/18 8:05a 72.7 89 69.3 0.0 SSW 2.0 72.7 29.935 0.00 63 0.000
7/16/18 8:00a 72.6 89 69.2 0.0 SSW 2.0 72.6 29.936 0.00 70 0.001
7/16/18 7:55a 72.5 89 69.1 1.0 SSW 4.0 72.5 29.941 0.00 64 0.000
7/16/18 7:50a 72.4 89 69.0 0.0 SSW 2.0 72.4 29.938 0.00 44 0.000
7/16/18 7:45a 72.3 89 68.9 1.0 SSW 3.0 72.3 29.938 0.00 33 0.000
7/16/18 7:40a 72.2 89 68.8 0.0 SSW 2.0 72.2 29.941 0.00 29 0.000
7/16/18 7:35a 72.1 89 68.7 0.0 SSW 3.0 72.1 29.939 0.00 32 0.000
7/16/18 7:30a 72.0 89 68.6 0.0 SSW 2.0 72.0 29.940 0.00 31 0.000
7/16/18 7:25a 71.9 89 68.5 0.0 SSW 2.0 71.9 29.939 0.00 25 0.000
7/16/18 7:20a 71.8 89 68.4 0.0 --- 0.0 71.8 29.940 0.00 21 0.000
7/16/18 7:15a 71.7 89 68.3 0.0 --- 0.0 71.7 29.940 0.00 22 0.000
7/16/18 7:10a 71.7 89 68.3 0.0 --- 0.0 71.7 29.937 0.00 20 0.000
7/16/18 7:05a 71.7 89 68.3 0.0 --- 0.0 71.7 29.936 0.00 15 0.000
7/16/18 7:00a 71.6 89 68.2 0.0 --- 0.0 71.6 29.935 0.00 12 0.000
7/16/18 6:55a 71.6 89 68.2 0.0 --- 0.0 71.6 29.938 0.00 9 0.000
7/16/18 6:50a 71.6 89 68.2 0.0 --- 0.0 71.6 29.939 0.00 6 0.000
7/16/18 6:45a 71.5 89 68.1 0.0 --- 0.0 71.5 29.940 0.00 4 0.000
7/16/18 6:40a 71.6 89 68.2 0.0 --- 0.0 71.6 29.937 0.00 0 0.000
7/16/18 6:35a 71.7 88 68.0 0.0 --- 0.0 71.7 29.934 0.00 0 0.000
7/16/18 6:30a 71.7 88 68.0 0.0 --- 0.0 71.7 29.933 0.00 0 0.000
7/16/18 6:25a 71.8 88 68.1 0.0 --- 0.0 71.8 29.933 0.00 0 0.000
7/16/18 6:20a 71.9 88 68.2 0.0 --- 0.0 71.9 29.931 0.00 0 0.000
7/16/18 6:15a 72.0 88 68.2 0.0 --- 0.0 72.0 29.932 0.00 0 0.000
7/16/18 6:10a 72.1 88 68.3 0.0 --- 0.0 72.1 29.929 0.00 0 0.000
7/16/18 6:05a 72.3 88 68.5 0.0 --- 0.0 72.3 29.931 0.00 0 0.000
7/16/18 6:00a 72.4 88 68.6 0.0 --- 0.0 72.4 29.930 0.00 0 0.000
7/16/18 5:55a 72.5 88 68.7 0.0 --- 0.0 72.5 29.929 0.00 0 0.000
7/16/18 5:50a 72.6 88 68.8 0.0 --- 0.0 72.6 29.931 0.00 0 0.000
7/16/18 5:45a 72.7 88 68.9 0.0 --- 0.0 72.7 29.930 0.00 0 0.000
7/16/18 5:40a 72.8 88 69.0 0.0 --- 0.0 72.8 29.929 0.00 0 0.000
7/16/18 5:35a 72.9 88 69.1 0.0 --- 0.0 72.9 29.929 0.00 0 0.000
7/16/18 5:30a 72.9 87 68.8 0.0 --- 0.0 72.9 29.931 0.00 0 0.000
7/16/18 5:25a 73.0 87 68.9 0.0 --- 0.0 73.0 29.933 0.00 0 0.000
7/16/18 5:20a 73.1 87 69.0 0.0 --- 0.0 73.1 29.931 0.00 0 0.000
7/16/18 5:15a 73.2 87 69.1 0.0 --- 0.0 73.2 29.935 0.00 0 0.000
7/16/18 5:10a 73.3 87 69.2 0.0 --- 0.0 73.3 29.935 0.00 0 0.000
7/16/18 5:05a 73.4 87 69.3 0.0 --- 0.0 73.4 29.935 0.00 0 0.000
7/16/18 5:00a 73.5 87 69.4 0.0 --- 0.0 73.5 29.935 0.00 0 0.001
7/16/18 4:55a 73.6 87 69.5 0.0 S 1.0 73.6 29.937 0.00 0 0.000
7/16/18 4:50a 73.6 87 69.5 0.0 --- 0.0 73.6 29.937 0.00 0 0.000
7/16/18 4:45a 73.6 87 69.5 0.0 --- 0.0 73.6 29.938 0.00 0 0.000
7/16/18 4:40a 73.6 87 69.5 0.0 --- 0.0 73.6 29.938 0.00 0 0.000
7/16/18 4:35a 73.7 87 69.6 0.0 --- 0.0 73.7 29.941 0.00 0 0.000
7/16/18 4:30a 73.7 87 69.6 0.0 --- 0.0 73.7 29.938 0.00 0 0.000
7/16/18 4:25a 73.7 87 69.6 0.0 --- 0.0 73.7 29.938 0.00 0 0.000
7/16/18 4:20a 73.8 87 69.7 0.0 --- 0.0 73.8 29.937 0.00 0 0.000
7/16/18 4:15a 73.8 87 69.7 0.0 --- 0.0 73.8 29.937 0.00 0 0.000
7/16/18 4:10a 73.9 87 69.8 0.0 S 1.0 73.9 29.937 0.00 0 0.000
7/16/18 4:05a 73.9 87 69.8 0.0 S 1.0 73.9 29.939 0.00 0 0.000
7/16/18 4:00a 73.9 87 69.8 0.0 --- 0.0 73.9 29.938 0.00 0 0.001
7/16/18 3:55a 74.0 87 69.9 0.0 --- 0.0 74.0 29.937 0.00 0 0.000
7/16/18 3:50a 74.0 87 69.9 0.0 --- 0.0 74.0 29.936 0.00 0 0.000
7/16/18 3:45a 74.1 87 70.0 0.0 SSW 2.0 74.1 29.934 0.00 0 0.000
7/16/18 3:40a 74.2 87 70.1 0.0 SW 3.0 74.2 29.936 0.00 0 0.000
7/16/18 3:35a 74.3 87 70.2 0.0 --- 0.0 74.3 29.937 0.00 0 0.000
7/16/18 3:30a 74.4 87 70.3 0.0 SSW 1.0 74.4 29.939 0.00 0 0.000
7/16/18 3:25a 74.4 87 70.3 0.0 SSW 2.0 74.4 29.941 0.00 0 0.000
7/16/18 3:20a 74.4 87 70.3 0.0 S 2.0 74.4 29.943 0.00 0 0.000
7/16/18 3:15a 74.5 87 70.4 0.0 SW 3.0 74.5 29.944 0.00 0 0.000
7/16/18 3:10a 74.5 87 70.4 0.0 SW 2.0 74.5 29.945 0.00 0 0.000
7/16/18 3:05a 74.6 86 70.1 0.0 SW 2.0 74.6 29.947 0.00 0 0.000
7/16/18 3:00a 74.6 86 70.1 1.0 SW 4.0 74.6 29.949 0.00 0 0.001
7/16/18 2:55a 74.6 86 70.1 0.0 W 3.0 74.6 29.951 0.00 0 0.000
7/16/18 2:50a 74.7 86 70.2 0.0 W 2.0 74.7 29.950 0.00 0 0.000
7/16/18 2:45a 74.7 86 70.2 0.0 W 3.0 74.7 29.952 0.00 0 0.000
7/16/18 2:40a 74.8 86 70.3 1.0 W 3.0 74.8 29.951 0.00 0 0.000
7/16/18 2:35a 74.9 86 70.4 1.0 W 3.0 74.9 29.955 0.00 0 0.000
7/16/18 2:30a 74.9 86 70.4 0.0 W 3.0 74.9 29.956 0.00 0 0.000
7/16/18 2:25a 74.9 86 70.4 0.0 W 2.0 74.9 29.955 0.00 0 0.000
7/16/18 2:20a 75.0 86 70.5 1.0 W 4.0 75.0 29.955 0.00 0 0.000
7/16/18 2:15a 75.0 85 70.2 1.0 W 3.0 75.0 29.958 0.00 0 0.000
7/16/18 2:10a 75.0 86 70.5 0.0 WNW 1.0 75.0 29.957 0.00 0 0.000
7/16/18 2:05a 75.0 85 70.2 0.0 W 2.0 75.0 29.957 0.00 0 0.000
7/16/18 2:00a 75.0 86 70.5 0.0 W 3.0 75.0 29.957 0.00 0 0.001
7/16/18 1:55a 75.0 86 70.5 0.0 W 2.0 75.0 29.960 0.00 0 0.000
7/16/18 1:50a 75.0 86 70.5 0.0 W 4.0 75.0 29.961 0.00 0 0.000
7/16/18 1:45a 75.0 86 70.5 0.0 W 3.0 75.0 29.962 0.00 0 0.000
7/16/18 1:40a 74.9 86 70.4 1.0 W 4.0 74.9 29.962 0.00 0 0.000
7/16/18 1:35a 74.9 86 70.4 1.0 W 4.0 74.9 29.964 0.00 0 0.000
7/16/18 1:30a 75.0 86 70.5 0.0 --- 4.0 75.0 29.964 0.00 0 0.000
7/16/18 1:25a 75.0 86 70.5 0.0 W 4.0 75.0 29.965 0.00 0 0.000
7/16/18 1:20a 75.0 86 70.5 0.0 WNW 2.0 75.0 29.965 0.00 0 0.000
7/16/18 1:15a 74.9 86 70.4 0.0 --- 0.0 74.9 29.964 0.00 0 0.000
7/16/18 1:10a 74.9 86 70.4 0.0 WNW 1.0 74.9 29.964 0.00 0 0.000
7/16/18 1:05a 74.9 86 70.4 0.0 WNW 1.0 74.9 29.967 0.00 0 0.000
7/16/18 1:00a 75.0 86 70.5 0.0 --- 0.0 75.0 29.968 0.00 0 0.001
7/16/18 12:55a 74.9 86 70.4 0.0 --- 0.0 74.9 29.966 0.00 0 0.000
7/16/18 12:50a 74.9 87 70.8 0.0 --- 0.0 74.9 29.967 0.00 0 0.000
7/16/18 12:45a 74.8 87 70.7 0.0 WNW 2.0 74.8 29.966 0.00 0 0.000
7/16/18 12:40a 74.7 87 70.6 0.0 --- 0.0 74.7 29.965 0.00 0 0.000
7/16/18 12:35a 74.6 87 70.5 0.0 --- 0.0 74.6 29.963 0.00 0 0.000
7/16/18 12:30a 74.6 87 70.5 0.0 --- 0.0 74.6 29.963 0.00 0 0.000
7/16/18 12:25a 74.5 87 70.4 0.0 --- 0.0 74.5 29.963 0.00 0 0.000
7/16/18 12:20a 74.4 87 70.3 0.0 --- 0.0 74.4 29.963 0.00 0 0.000
7/16/18 12:15a 74.4 87 70.3 0.0 --- 0.0 74.4 29.962 0.00 0 0.000
7/16/18 12:10a 74.3 87 70.2 0.0 --- 0.0 74.3 29.959 0.00 0 0.000
7/16/18 12:05a 74.2 87 70.1 0.0 --- 0.0 74.2 29.961 0.00 0 0.000
7/16/18 12:00a 74.2 87 70.1 0.0 --- 0.0 74.2 29.962 0.00 0 0.001

12,051 Page Views